Time;durP1;ratioP1;P1;durP2;ratioP2;P2;SDS_P1;SDS_P2;PMS_P1;PMS_P2;Temp;Humidity;BMP_temperature;BMP_pressure;BME280_temperature;BME280_humidity;BME280_pressure;Samples;Min_cycle;Max_cycle;Signal;HPM_P1;HPM_P2
2023/08/22 00:00:15;;;;;;;11.23;6.87;;;;;;;25.75;nan;99763.03;5013415;28;20210;-77
2023/08/22 00:02:42;;;;;;;8.67;6.17;;;;;;;25.73;nan;99764.25;5007770;28;20201;-77
2023/08/22 00:05:08;;;;;;;6.93;6.17;;;;;;;25.73;nan;99754.31;5005377;28;20457;-77
2023/08/22 00:07:34;;;;;;;7.07;6.37;;;;;;;25.76;nan;99758.50;5015159;28;20309;-77
2023/08/22 00:09:59;;;;;;;9.63;7.07;;;;;;;25.75;nan;99760.34;5015032;28;20504;-77
2023/08/22 00:12:25;;;;;;;8.77;6.60;;;;;;;25.70;nan;99759.28;5012139;28;20749;-78
2023/08/22 00:14:50;;;;;;;9.13;7.03;;;;;;;25.59;nan;99758.75;5015360;28;20762;-77
2023/08/22 00:17:16;;;;;;;7.00;6.27;;;;;;;25.45;nan;99756.13;5012177;28;20419;-77
2023/08/22 00:19:43;;;;;;;12.43;6.30;;;;;;;25.27;nan;99757.38;5015296;28;20836;-77
2023/08/22 00:22:08;;;;;;;7.83;6.40;;;;;;;25.16;nan;99757.84;5013745;28;20464;-77
2023/08/22 00:24:35;;;;;;;7.13;5.90;;;;;;;25.05;nan;99758.31;4988366;28;20445;-77
2023/08/22 00:27:01;;;;;;;7.13;5.73;;;;;;;25.00;nan;99755.34;5013450;28;20215;-77
2023/08/22 00:29:26;;;;;;;7.67;6.23;;;;;;;24.98;nan;99749.31;4996753;28;20472;-77
2023/08/22 00:31:52;;;;;;;10.20;7.23;;;;;;;24.99;nan;99751.84;5013876;28;20401;-77
2023/08/22 00:34:17;;;;;;;8.80;7.77;;;;;;;25.01;nan;99749.81;5012991;28;20201;-77
2023/08/22 00:36:43;;;;;;;8.60;7.70;;;;;;;25.04;nan;99749.44;4995644;28;20823;-77
2023/08/22 00:39:08;;;;;;;8.40;7.53;;;;;;;25.04;nan;99756.66;4987631;28;20238;-77
2023/08/22 00:41:33;;;;;;;11.40;7.30;;;;;;;25.07;nan;99754.41;5007563;28;20204;-77
2023/08/22 00:43:59;;;;;;;11.00;7.77;;;;;;;25.10;nan;99756.72;5005846;28;20751;-77
2023/08/22 00:46:27;;;;;;;10.43;7.87;;;;;;;25.15;nan;99748.97;5005554;28;20269;-77
2023/08/22 00:48:53;;;;;;;9.07;7.87;;;;;;;25.17;nan;99748.78;4996223;28;20213;-77
2023/08/22 00:51:19;;;;;;;9.30;7.77;;;;;;;25.18;nan;99747.75;4996893;28;20457;-77
2023/08/22 00:53:45;;;;;;;9.00;7.50;;;;;;;25.18;nan;99750.44;5013927;28;20826;-77
2023/08/22 00:56:11;;;;;;;8.17;7.27;;;;;;;25.19;nan;99748.59;4994487;28;20423;-77
2023/08/22 00:58:38;;;;;;;8.20;6.70;;;;;;;25.17;nan;99736.19;5014507;28;20456;-77
2023/08/22 01:01:03;;;;;;;6.40;5.80;;;;;;;25.09;nan;99751.56;4995813;28;20575;-77
2023/08/22 01:03:29;;;;;;;8.37;6.47;;;;;;;25.02;nan;99740.72;5015318;28;20444;-77
2023/08/22 01:06:01;;;;;;;8.37;6.80;;;;;;;25.00;nan;99748.13;4995626;28;20441;-77
2023/08/22 01:08:32;;;;;;;7.10;6.50;;;;;;;24.93;nan;99747.22;5013661;28;20202;-77
2023/08/22 01:11:06;;;;;;;6.40;5.80;;;;;;;24.89;nan;99744.06;5015252;28;20452;-77
2023/08/22 01:13:34;;;;;;;8.80;6.90;;;;;;;24.79;nan;99746.22;4996040;28;20445;-77
2023/08/22 01:16:01;;;;;;;7.10;6.40;;;;;;;24.70;nan;99741.94;5014725;28;20906;-77
2023/08/22 01:18:28;;;;;;;7.40;6.50;;;;;;;24.67;nan;99745.00;4994132;28;20461;-77
2023/08/22 01:21:07;;;;;;;6.93;6.23;;;;;;;24.58;nan;99749.66;5014936;28;20453;-77
2023/08/22 01:23:33;;;;;;;7.43;6.70;;;;;;;24.46;nan;99751.94;4992673;28;20200;-77
2023/08/22 01:26:01;;;;;;;8.40;6.20;;;;;;;24.38;nan;99743.09;5010419;28;21064;-77
2023/08/22 01:28:45;;;;;;;8.10;6.87;;;;;;;24.28;nan;99748.75;4995320;28;20186;-77
2023/08/22 01:31:25;;;;;;;6.17;5.57;;;;;;;24.19;nan;99750.66;4995443;28;20449;-77
2023/08/22 01:34:01;;;;;;;7.33;6.63;;;;;;;24.08;nan;99746.56;5014334;28;20505;-77
2023/08/22 01:36:28;;;;;;;8.73;6.20;;;;;;;24.00;nan;99746.66;5014917;28;20456;-77
2023/08/22 01:38:54;;;;;;;6.63;5.90;;;;;;;24.00;nan;99753.88;5012823;28;20595;-77
2023/08/22 01:41:21;;;;;;;6.60;6.00;;;;;;;23.97;nan;99746.19;4994608;28;20459;-77
2023/08/22 01:43:46;;;;;;;5.97;5.37;;;;;;;23.95;nan;99749.06;5012928;28;20983;-77
2023/08/22 01:46:12;;;;;;;10.33;7.07;;;;;;;23.96;nan;99737.31;4994519;28;20467;-76
2023/08/22 01:48:37;;;;;;;8.63;7.70;;;;;;;24.01;nan;99747.50;5013215;28;20690;-76
2023/08/22 01:51:03;;;;;;;6.53;5.83;;;;;;;24.03;nan;99742.75;5014341;28;20202;-76
2023/08/22 01:53:28;;;;;;;7.30;6.60;;;;;;;23.99;nan;99745.00;5001495;28;20636;-76
2023/08/22 01:56:00;;;;;;;9.10;6.27;;;;;;;23.92;nan;99740.53;4995787;28;20777;-76
2023/08/22 01:58:27;;;;;;;11.20;7.03;;;;;;;23.90;nan;99738.03;4964031;28;20698;-76
2023/08/22 02:00:52;;;;;;;6.60;6.10;;;;;;;23.91;nan;99734.31;4978615;28;20488;-77
2023/08/22 02:03:19;;;;;;;7.20;6.40;;;;;;;23.95;nan;99738.34;4996513;28;20458;-76
2023/08/22 02:05:45;;;;;;;9.00;7.60;;;;;;;23.99;nan;99739.63;4992102;28;20214;-77
2023/08/22 02:08:11;;;;;;;7.70;6.20;;;;;;;23.99;nan;99731.56;5000593;28;20503;-76
2023/08/22 02:10:36;;;;;;;7.40;6.30;;;;;;;24.02;nan;99738.44;5003458;28;20727;-76
2023/08/22 02:13:02;;;;;;;8.53;7.20;;;;;;;24.03;nan;99730.22;5002306;28;20214;-76
2023/08/22 02:15:28;;;;;;;10.47;6.63;;;;;;;24.05;nan;99733.53;4983729;28;20256;-76
2023/08/22 02:17:53;;;;;;;7.70;6.90;;;;;;;24.07;nan;99730.66;4984840;28;20467;-76
2023/08/22 02:20:22;;;;;;;9.57;7.50;;;;;;;24.08;nan;99729.66;5002669;28;20228;-77
2023/08/22 02:22:47;;;;;;;7.93;7.23;;;;;;;24.10;nan;99732.16;5003573;28;20566;-76
2023/08/22 02:25:14;;;;;;;7.93;7.13;;;;;;;24.06;nan;99728.97;5005195;28;20460;-76
2023/08/22 02:27:39;;;;;;;7.77;6.97;;;;;;;24.01;nan;99726.88;5000499;28;20210;-77
2023/08/22 02:30:10;;;;;;;8.00;7.20;;;;;;;23.98;nan;99729.91;4983417;28;21085;-76
2023/08/22 02:32:38;;;;;;;12.40;8.43;;;;;;;23.97;nan;99722.88;4983730;28;20841;-76
2023/08/22 02:35:03;;;;;;;8.20;7.40;;;;;;;23.97;nan;99722.03;4984752;28;20458;-77
2023/08/22 02:37:29;;;;;;;7.03;6.40;;;;;;;23.90;nan;99727.31;5000761;28;20216;-76
2023/08/22 02:39:55;;;;;;;9.17;6.30;;;;;;;23.80;nan;99729.41;4998090;28;20478;-77
2023/08/22 02:42:22;;;;;;;7.30;6.57;;;;;;;23.68;nan;99730.78;4983320;28;20721;-77
2023/08/22 02:44:47;;;;;;;8.13;7.33;;;;;;;23.56;nan;99736.56;5001998;28;20464;-76
2023/08/22 02:47:13;;;;;;;9.67;6.40;;;;;;;23.45;nan;99731.63;4984547;28;21017;-77
2023/08/22 02:49:38;;;;;;;8.43;6.17;;;;;;;23.41;nan;99725.81;5001151;28;20263;-76
2023/08/22 02:52:04;;;;;;;6.90;5.83;;;;;;;23.45;nan;99733.47;4981905;28;20588;-77
2023/08/22 02:54:29;;;;;;;7.10;6.40;;;;;;;23.43;nan;99728.28;5001650;28;20313;-76
2023/08/22 02:56:55;;;;;;;6.83;6.13;;;;;;;23.40;nan;99725.97;4997962;28;20617;-77
2023/08/22 02:59:20;;;;;;;8.27;5.90;;;;;;;23.42;nan;99732.00;4981084;28;20204;-77
2023/08/22 03:01:46;;;;;;;7.90;7.10;;;;;;;23.42;nan;99726.63;5000349;28;20672;-76
2023/08/22 03:04:11;;;;;;;8.50;6.87;;;;;;;23.44;nan;99734.47;4983038;28;20203;-77
2023/08/22 03:06:37;;;;;;;7.00;6.30;;;;;;;23.36;nan;99732.72;5000946;28;20695;-76
2023/08/22 03:09:04;;;;;;;10.90;6.80;;;;;;;23.27;nan;99739.13;4983125;28;20204;-76
2023/08/22 03:11:29;;;;;;;6.73;6.10;;;;;;;23.17;nan;99736.69;4999106;28;20475;-77
2023/08/22 03:13:55;;;;;;;7.07;5.50;;;;;;;23.05;nan;99743.41;4981334;28;21055;-76
2023/08/22 03:16:22;;;;;;;7.83;7.10;;;;;;;22.97;nan;99741.63;4979614;28;20220;-77
2023/08/22 03:18:47;;;;;;;7.17;6.47;;;;;;;22.94;nan;99744.63;4979383;28;20453;-76
2023/08/22 03:21:13;;;;;;;7.00;6.30;;;;;;;22.89;nan;99746.97;4981825;28;20232;-77
2023/08/22 03:23:38;;;;;;;6.77;5.50;;;;;;;22.82;nan;99751.34;5000828;28;20606;-77
2023/08/22 03:26:10;;;;;;;6.23;5.70;;;;;;;22.77;nan;99746.53;4982242;28;20213;-77
2023/08/22 03:28:36;;;;;;;7.57;6.40;;;;;;;22.70;nan;99756.25;4998629;28;21004;-77
2023/08/22 03:31:05;;;;;;;6.40;5.80;;;;;;;22.67;nan;99748.56;4996347;28;21016;-77
2023/08/22 03:33:33;;;;;;;6.57;5.33;;;;;;;22.64;nan;99747.06;4985596;28;20187;-77
2023/08/22 03:36:00;;;;;;;8.43;6.00;;;;;;;22.64;nan;99749.75;4973024;28;20449;-77
2023/08/22 03:38:26;;;;;;;6.67;6.07;;;;;;;22.63;nan;99742.72;4976181;28;20500;-77
2023/08/22 03:40:54;;;;;;;6.83;6.13;;;;;;;22.66;nan;99744.22;4977585;28;20641;-77
2023/08/22 03:43:19;;;;;;;7.60;6.87;;;;;;;22.68;nan;99735.00;4977382;28;20454;-78
2023/08/22 03:45:45;;;;;;;7.27;6.57;;;;;;;22.74;nan;99733.50;4975714;28;21337;-77
2023/08/22 03:48:12;;;;;;;7.20;6.50;;;;;;;22.79;nan;99732.94;4979484;28;20571;-77
2023/08/22 03:50:41;;;;;;;7.83;6.77;;;;;;;22.79;nan;99739.16;4982380;28;20450;-77
2023/08/22 03:53:10;;;;;;;7.17;6.47;;;;;;;22.81;nan;99736.28;5005080;28;20885;-79
2023/08/22 03:55:37;;;;;;;9.30;7.57;;;;;;;22.84;nan;99743.97;4994114;28;20545;-79
2023/08/22 03:58:03;;;;;;;9.40;7.53;;;;;;;22.87;nan;99743.63;4993866;28;20481;-78
2023/08/22 04:00:30;;;;;;;11.57;7.40;;;;;;;22.89;nan;99746.97;4994628;28;20879;-78
2023/08/22 04:02:57;;;;;;;8.30;7.50;;;;;;;22.88;nan;99746.16;5007200;28;20960;-80
2023/08/22 04:05:23;;;;;;;8.80;7.90;;;;;;;22.89;nan;99749.66;4992649;28;20435;-79
2023/08/22 04:07:50;;;;;;;8.63;7.83;;;;;;;22.89;nan;99745.13;5010022;28;20461;-79
2023/08/22 04:10:16;;;;;;;7.50;6.80;;;;;;;22.92;nan;99754.66;5009463;28;20450;-79
2023/08/22 04:12:41;;;;;;;7.60;5.97;;;;;;;22.90;nan;99754.00;5016255;28;20437;-79
2023/08/22 04:15:08;;;;;;;7.10;5.70;;;;;;;22.86;nan;99755.34;5015496;28;20460;-79
2023/08/22 04:17:34;;;;;;;4.53;4.10;;;;;;;22.79;nan;99757.06;4993887;28;20226;-79
2023/08/22 04:19:59;;;;;;;5.53;5.10;;;;;;;22.71;nan;99755.22;4996979;28;20449;-79
2023/08/22 04:22:26;;;;;;;5.83;5.30;;;;;;;22.67;nan;99759.28;4995047;28;20195;-79
2023/08/22 04:24:51;;;;;;;5.97;5.40;;;;;;;22.65;nan;99756.75;4998318;28;20265;-79
2023/08/22 04:27:17;;;;;;;6.57;5.97;;;;;;;22.66;nan;99761.13;5014544;28;20481;-79
2023/08/22 04:29:43;;;;;;;6.63;5.73;;;;;;;22.69;nan;99766.13;4980479;28;20393;-79
2023/08/22 04:32:09;;;;;;;10.13;6.23;;;;;;;22.73;nan;99762.09;5011858;28;20902;-79
2023/08/22 04:34:34;;;;;;;9.40;7.83;;;;;;;22.73;nan;99764.75;4990317;28;20262;-79
2023/08/22 04:37:01;;;;;;;9.93;8.93;;;;;;;22.74;nan;99757.59;4997471;28;20254;-79
2023/08/22 04:39:27;;;;;;;9.53;8.10;;;;;;;22.74;nan;99761.09;4999159;28;20470;-79
2023/08/22 04:42:02;;;;;;;8.60;7.70;;;;;;;22.74;nan;99758.41;4995917;28;20829;-79
2023/08/22 04:44:34;;;;;;;8.93;7.30;;;;;;;22.72;nan;99757.75;5012793;28;20808;-79
2023/08/22 04:47:00;;;;;;;9.20;8.17;;;;;;;22.74;nan;99758.41;4977790;28;20470;-78
2023/08/22 04:49:26;;;;;;;9.40;8.00;;;;;;;22.75;nan;99756.56;4994792;28;20198;-79
2023/08/22 04:51:52;;;;;;;8.00;7.20;;;;;;;22.79;nan;99762.41;4996055;28;20205;-79
2023/08/22 04:54:17;;;;;;;10.20;7.70;;;;;;;22.80;nan;99762.25;4996677;28;20478;-78
2023/08/22 04:56:43;;;;;;;6.67;6.07;;;;;;;22.79;nan;99767.75;4991665;28;20234;-78
2023/08/22 04:59:09;;;;;;;6.00;5.40;;;;;;;22.74;nan;99766.44;4992210;28;20741;-78
2023/08/22 05:01:35;;;;;;;5.40;4.90;;;;;;;22.68;nan;99767.16;5009269;28;21184;-78
2023/08/22 05:04:00;;;;;;;4.97;4.57;;;;;;;22.57;nan;99766.66;4986878;28;20257;-77
2023/08/22 05:06:26;;;;;;;4.30;3.90;;;;;;;22.49;nan;99764.84;4991580;28;20739;-78
2023/08/22 05:08:51;;;;;;;5.27;4.20;;;;;;;22.44;nan;99769.84;5008513;28;20202;-78
2023/08/22 05:11:18;;;;;;;5.17;4.60;;;;;;;22.45;nan;99771.53;4991692;28;20206;-78
2023/08/22 05:13:44;;;;;;;6.40;5.27;;;;;;;22.68;nan;99771.66;4994471;28;21017;-79
2023/08/22 05:16:09;;;;;;;6.10;5.23;;;;;;;23.00;nan;99773.41;4995291;28;20457;-79
2023/08/22 05:18:35;;;;;;;5.53;4.93;;;;;;;23.34;nan;99773.06;4997396;28;20422;-79
2023/08/22 05:21:00;;;;;;;5.30;4.80;;;;;;;23.71;nan;99768.88;5020066;28;20191;-79
2023/08/22 05:23:26;;;;;;;6.37;5.67;;;;;;;24.08;nan;99768.03;4993949;28;20230;-79
2023/08/22 05:25:51;;;;;;;7.50;6.80;;;;;;;24.42;nan;99772.09;5015185;28;20229;-79
2023/08/22 05:28:18;;;;;;;9.43;5.60;;;;;;;24.68;nan;99777.06;5000185;28;20200;-79
2023/08/22 05:30:44;;;;;;;10.20;8.53;;;;;;;24.95;nan;99777.41;4998769;28;21031;-79
2023/08/22 05:33:09;;;;;;;7.30;6.57;;;;;;;25.25;nan;99772.03;5001096;28;20500;-78
2023/08/22 05:35:35;;;;;;;6.70;6.10;;;;;;;25.59;nan;99771.38;4995218;28;20194;-79
2023/08/22 05:38:01;;;;;;;7.40;6.27;;;;;;;25.96;nan;99773.00;4997530;28;20213;-79
2023/08/22 05:40:26;;;;;;;8.40;7.37;;;;;;;26.31;nan;99772.25;5000352;28;20289;-79
2023/08/22 05:42:52;;;;;;;10.70;8.10;;;;;;;26.47;nan;99769.28;5002445;28;20195;-79
2023/08/22 05:45:21;;;;;;;6.70;6.00;;;;;;;26.61;nan;99767.53;5016186;28;20190;-79
2023/08/22 05:47:47;;;;;;;8.17;7.23;;;;;;;26.89;nan;99772.84;5002936;28;20539;-79
2023/08/22 05:50:13;;;;;;;7.80;7.03;;;;;;;27.19;nan;99776.13;5005586;28;20735;-79
2023/08/22 05:52:40;;;;;;;6.87;6.27;;;;;;;27.25;nan;99785.28;5008830;28;20253;-79
2023/08/22 05:55:06;;;;;;;11.90;8.10;;;;;;;27.17;nan;99777.34;5029062;28;20447;-79
2023/08/22 05:57:32;;;;;;;9.00;7.50;;;;;;;27.03;nan;99781.81;5007222;28;20446;-79
2023/08/22 05:59:59;;;;;;;7.87;7.00;;;;;;;26.82;nan;99785.47;5030379;28;20455;-79
2023/08/22 06:02:27;;;;;;;8.87;7.97;;;;;;;26.56;nan;99794.22;5017071;28;20241;-79
2023/08/22 06:04:53;;;;;;;9.80;8.00;;;;;;;26.32;nan;99785.50;5019983;28;20433;-79
2023/08/22 06:07:19;;;;;;;9.10;8.03;;;;;;;26.17;nan;99782.94;5025999;28;20726;-79
2023/08/22 06:09:46;;;;;;;10.03;8.27;;;;;;;26.15;nan;99798.44;5026484;28;20198;-79
2023/08/22 06:12:11;;;;;;;10.37;8.70;;;;;;;26.35;nan;99798.59;5015447;28;20433;-79
2023/08/22 06:14:38;;;;;;;9.50;8.60;;;;;;;26.81;nan;99790.00;5014387;28;20202;-79
2023/08/22 06:17:03;;;;;;;10.00;8.17;;;;;;;27.41;nan;99787.63;5034126;28;20206;-79
2023/08/22 06:19:28;;;;;;;12.93;8.40;;;;;;;28.06;nan;99787.13;5016979;28;20984;-79
2023/08/22 06:21:54;;;;;;;9.60;7.57;;;;;;;28.74;nan;99778.78;5033210;28;20230;-79
2023/08/22 06:24:20;;;;;;;9.90;8.30;;;;;;;29.32;nan;99778.78;5016232;28;20207;-79
2023/08/22 06:26:48;;;;;;;9.27;7.87;;;;;;;29.77;nan;99779.59;5033840;28;20536;-79
2023/08/22 06:29:15;;;;;;;7.83;7.00;;;;;;;30.18;nan;99786.38;5016980;28;20514;-80
2023/08/22 06:31:40;;;;;;;9.70;7.70;;;;;;;30.63;nan;99785.38;5033437;28;20449;-79
2023/08/22 06:34:06;;;;;;;10.53;8.10;;;;;;;31.03;nan;99774.94;5016774;28;20572;-79
2023/08/22 06:36:31;;;;;;;12.10;7.30;;;;;;;31.37;nan;99783.50;5015519;28;20475;-78
2023/08/22 06:38:57;;;;;;;8.13;7.27;;;;;;;31.55;nan;99779.09;5034495;28;20198;-79
2023/08/22 06:41:23;;;;;;;7.90;7.10;;;;;;;31.64;nan;99780.41;5023381;28;20209;-78
2023/08/22 06:43:50;;;;;;;8.40;7.60;;;;;;;31.62;nan;99780.66;5032425;28;20467;-78
2023/08/22 06:46:16;;;;;;;8.40;7.60;;;;;;;31.68;nan;99785.16;5016236;28;20221;-78
2023/08/22 06:48:42;;;;;;;11.43;7.47;;;;;;;31.88;nan;99775.88;5016224;28;20813;-78
2023/08/22 06:51:09;;;;;;;8.87;7.97;;;;;;;32.09;nan;99774.53;5016804;28;20445;-78
2023/08/22 06:53:34;;;;;;;9.53;8.60;;;;;;;32.25;nan;99778.44;5021498;28;20469;-79
2023/08/22 06:56:01;;;;;;;9.30;8.43;;;;;;;32.42;nan;99789.44;5019339;28;20510;-79
2023/08/22 06:58:26;;;;;;;13.07;8.53;;;;;;;32.25;nan;99779.25;5018615;28;20186;-78
2023/08/22 07:00:52;;;;;;;11.17;9.10;;;;;;;31.72;nan;99780.91;5019597;28;20450;-78
2023/08/22 07:03:17;;;;;;;10.50;8.67;;;;;;;31.05;nan;99786.38;5019171;28;20743;-78
2023/08/22 07:05:43;;;;;;;9.53;8.60;;;;;;;30.31;nan;99788.16;5017533;28;20202;-78
2023/08/22 07:08:08;;;;;;;9.93;8.27;;;;;;;29.73;nan;99802.75;5018813;28;20202;-78
2023/08/22 07:10:34;;;;;;;9.07;8.27;;;;;;;29.26;nan;99794.03;5018109;28;20206;-78
2023/08/22 07:13:00;;;;;;;13.73;9.57;;;;;;;28.84;nan;99790.81;5018004;28;20210;-78
2023/08/22 07:15:29;;;;;;;11.63;8.87;;;;;;;28.56;nan;99795.66;5015122;28;20199;-78
2023/08/22 07:17:54;;;;;;;8.80;7.60;;;;;;;28.77;nan;99802.69;5011036;28;20453;-78
2023/08/22 07:20:20;;;;;;;8.37;7.57;;;;;;;29.37;nan;99800.63;5016027;28;20449;-79
2023/08/22 07:22:45;;;;;;;8.83;8.13;;;;;;;29.96;nan;99794.06;5014842;28;20481;-79
2023/08/22 07:25:11;;;;;;;8.27;7.50;;;;;;;30.55;nan;99794.63;5016155;28;20215;-78
2023/08/22 07:27:37;;;;;;;8.27;7.50;;;;;;;31.13;nan;99797.97;5014144;28;20211;-79
2023/08/22 07:30:03;;;;;;;8.47;7.13;;;;;;;31.73;nan;99793.44;5012751;28;20205;-77
2023/08/22 07:32:29;;;;;;;7.27;6.60;;;;;;;32.27;nan;99790.72;5013566;28;20203;-80
2023/08/22 07:34:57;;;;;;;9.90;6.73;;;;;;;32.68;nan;99786.25;5017337;28;20438;-81
2023/08/22 07:37:23;;;;;;;7.20;6.60;;;;;;;33.12;nan;99791.28;5018536;28;20219;-81
2023/08/22 07:39:51;;;;;;;8.43;6.40;;;;;;;33.55;nan;99782.63;5017393;28;20873;-81
2023/08/22 07:42:17;;;;;;;7.37;6.50;;;;;;;33.83;nan;99789.91;5018069;28;20195;-81
2023/08/22 07:44:43;;;;;;;7.67;6.87;;;;;;;34.00;nan;99797.28;5016268;28;20717;-81
2023/08/22 07:47:11;;;;;;;9.80;7.20;;;;;;;34.11;nan;99788.25;5016754;28;20277;-81
2023/08/22 07:49:37;;;;;;;6.40;5.90;;;;;;;34.19;nan;99787.84;5016176;28;20460;-81
2023/08/22 07:52:02;;;;;;;8.23;6.57;;;;;;;34.31;nan;99787.72;5017395;28;20478;-81
2023/08/22 07:54:29;;;;;;;8.07;7.27;;;;;;;34.53;nan;99791.34;5020430;28;20195;-81
2023/08/22 07:56:55;;;;;;;13.23;6.60;;;;;;;34.75;nan;99796.03;5021787;28;20531;-81
2023/08/22 07:59:21;;;;;;;9.30;6.27;;;;;;;34.93;nan;99793.00;5018601;28;20482;-81
2023/08/22 08:01:46;;;;;;;6.90;6.20;;;;;;;35.02;nan;99796.91;5019674;28;20454;-81
2023/08/22 08:04:12;;;;;;;6.23;5.63;;;;;;;35.17;nan;99795.50;5017712;28;20191;-81
2023/08/22 08:06:37;;;;;;;9.40;6.90;;;;;;;35.42;nan;99797.69;5018213;28;20451;-81
2023/08/22 08:09:06;;;;;;;7.20;6.50;;;;;;;35.62;nan;99797.09;5021536;28;20468;-81
2023/08/22 08:11:32;;;;;;;6.80;6.20;;;;;;;35.66;nan;99795.50;5019804;28;20207;-81
2023/08/22 08:13:58;;;;;;;6.67;6.17;;;;;;;35.73;nan;99785.22;5018878;28;20457;-81
2023/08/22 08:16:24;;;;;;;8.77;6.77;;;;;;;35.80;nan;99790.44;5017787;28;20211;-81
2023/08/22 08:18:50;;;;;;;7.73;6.07;;;;;;;35.89;nan;99794.38;5018921;28;20521;-81
2023/08/22 08:21:16;;;;;;;5.90;5.40;;;;;;;35.93;nan;99790.03;5018744;28;20477;-81
2023/08/22 08:23:43;;;;;;;7.87;6.07;;;;;;;36.05;nan;99790.69;5019768;28;20453;-81
2023/08/22 08:26:08;;;;;;;6.77;6.17;;;;;;;36.18;nan;99788.59;5018668;28;20222;-81
2023/08/22 08:28:33;;;;;;;6.80;6.20;;;;;;;36.18;nan;99788.59;5017571;28;20564;-81
2023/08/22 08:30:59;;;;;;;6.00;5.37;;;;;;;36.07;nan;99793.16;5019786;28;20641;-81
2023/08/22 08:33:25;;;;;;;6.20;5.70;;;;;;;36.03;nan;99792.84;5017331;28;20242;-81
2023/08/22 08:35:51;;;;;;;7.77;5.90;;;;;;;35.95;nan;99797.97;5017385;28;20234;-81
2023/08/22 08:38:16;;;;;;;6.77;6.07;;;;;;;35.85;nan;99793.22;5017618;28;20450;-81
2023/08/22 08:40:42;;;;;;;7.23;6.53;;;;;;;35.97;nan;99793.03;5019839;28;20191;-81
2023/08/22 08:43:08;;;;;;;6.00;5.50;;;;;;;35.97;nan;99798.50;5017758;28;20209;-81
2023/08/22 08:45:34;;;;;;;6.73;5.50;;;;;;;35.96;nan;99797.69;5021048;28;20450;-81
2023/08/22 08:48:02;;;;;;;6.27;5.77;;;;;;;35.77;nan;99790.97;5019754;28;20218;-81
2023/08/22 08:50:28;;;;;;;6.33;5.23;;;;;;;35.44;nan;99790.91;5011577;28;20449;-81
2023/08/22 08:52:53;;;;;;;5.47;4.97;;;;;;;35.10;nan;99797.59;5017621;28;20527;-81
2023/08/22 08:55:19;;;;;;;6.80;5.30;;;;;;;34.90;nan;99796.25;5017322;28;20241;-81
2023/08/22 08:57:44;;;;;;;6.00;5.40;;;;;;;34.75;nan;99794.13;5017217;28;20214;-76
2023/08/22 09:00:10;;;;;;;6.67;5.83;;;;;;;34.56;nan;99790.00;5012139;28;20199;-78
2023/08/22 09:02:35;;;;;;;5.37;4.97;;;;;;;34.39;nan;99790.03;5014160;28;20197;-79
2023/08/22 09:05:04;;;;;;;5.80;5.03;;;;;;;34.21;nan;99798.47;5013706;28;20515;-78
2023/08/22 09:07:30;;;;;;;7.67;5.70;;;;;;;34.06;nan;99799.06;5012616;28;20214;-78
2023/08/22 09:09:55;;;;;;;5.60;5.10;;;;;;;33.88;nan;99795.47;5023829;28;20884;-78
2023/08/22 09:12:21;;;;;;;5.97;5.37;;;;;;;33.74;nan;99796.03;5014709;28;20481;-78
2023/08/22 09:14:47;;;;;;;6.80;5.67;;;;;;;33.76;nan;99791.16;5015625;28;20264;-78
2023/08/22 09:17:15;;;;;;;5.97;5.37;;;;;;;33.85;nan;99782.34;5019767;28;20466;-78
2023/08/22 09:19:40;;;;;;;8.27;5.63;;;;;;;33.90;nan;99782.41;5012119;28;20876;-78
2023/08/22 09:22:06;;;;;;;7.57;5.63;;;;;;;33.92;nan;99782.19;5011767;28;20778;-78
2023/08/22 09:24:34;;;;;;;6.03;5.40;;;;;;;33.71;nan;99778.28;5012380;28;20477;-79
2023/08/22 09:27:03;;;;;;;5.80;4.90;;;;;;;33.61;nan;99775.38;5013267;28;20264;-78
2023/08/22 09:29:42;;;;;;;5.70;5.10;;;;;;;33.59;nan;99774.78;5009685;28;20954;-78
2023/08/22 09:32:08;;;;;;;8.23;6.70;;;;;;;33.57;nan;99769.59;5011247;28;20455;-79
2023/08/22 09:34:34;;;;;;;5.77;5.30;;;;;;;33.42;nan;99777.44;5012028;28;20489;-79
2023/08/22 09:37:00;;;;;;;6.00;5.50;;;;;;;33.38;nan;99768.09;5012151;28;20584;-78
2023/08/22 09:39:26;;;;;;;5.27;4.77;;;;;;;33.42;nan;99766.53;5011286;28;20535;-78
2023/08/22 09:41:54;;;;;;;6.10;5.57;;;;;;;33.54;nan;99772.81;5009472;28;20206;-79
2023/08/22 09:44:27;;;;;;;7.17;5.67;;;;;;;33.70;nan;99771.16;5006804;28;20469;-78
2023/08/22 09:46:55;;;;;;;8.80;5.50;;;;;;;33.95;nan;99769.97;4998784;28;20484;-78
2023/08/22 09:49:21;;;;;;;6.40;5.10;;;;;;;34.11;nan;99767.25;5002735;28;20441;-78
2023/08/22 09:51:48;;;;;;;6.00;5.50;;;;;;;34.30;nan;99767.00;5001438;28;20460;-79
2023/08/22 09:54:14;;;;;;;6.10;4.97;;;;;;;34.36;nan;99766.00;5010146;28;20822;-79
2023/08/22 09:56:41;;;;;;;7.43;5.93;;;;;;;34.38;nan;99769.31;4993062;28;20461;-78
2023/08/22 09:59:06;;;;;;;8.40;6.00;;;;;;;34.33;nan;99763.78;5008554;28;21172;-78
2023/08/22 10:01:36;;;;;;;6.10;5.50;;;;;;;34.36;nan;99760.53;5005131;28;21031;-78
2023/08/22 10:04:03;;;;;;;6.20;5.60;;;;;;;34.40;nan;99758.13;5009892;28;20264;-78
2023/08/22 10:06:31;;;;;;;5.88;5.38;;;;;;;34.42;nan;99754.06;5007457;28;20451;-78
2023/08/22 10:08:57;;;;;;;9.83;5.30;;;;;;;34.44;nan;99757.38;5004133;28;20209;-78
2023/08/22 10:11:26;;;;;;;6.37;5.50;;;;;;;34.43;nan;99750.28;5007365;28;20573;-78
2023/08/22 10:13:56;;;;;;;8.37;6.50;;;;;;;34.52;nan;99746.03;5010071;28;20456;-79
2023/08/22 10:16:21;;;;;;;6.30;5.70;;;;;;;34.53;nan;99741.41;5015738;28;21039;-79
2023/08/22 10:18:47;;;;;;;6.10;5.50;;;;;;;34.51;nan;99743.56;5020245;28;20452;-79
2023/08/22 10:21:12;;;;;;;6.83;5.70;;;;;;;34.55;nan;99737.34;5017649;28;20199;-78
2023/08/22 10:23:54;;;;;;;5.67;5.17;;;;;;;34.59;nan;99737.69;5020125;28;20226;-79
2023/08/22 10:26:20;;;;;;;7.47;6.10;;;;;;;34.71;nan;99734.88;4995131;28;20282;-79
2023/08/22 10:29:15;;;;;;;5.70;5.10;;;;;;;34.79;nan;99731.69;5017853;28;21017;-79
2023/08/22 10:32:02;;;;;;;6.37;5.20;;;;;;;34.76;nan;99732.22;5016179;28;20446;-80
2023/08/22 10:34:33;;;;;;;8.80;6.93;;;;;;;34.69;nan;99729.66;5017436;28;20440;-79
2023/08/22 10:37:00;;;;;;;5.77;5.20;;;;;;;34.70;nan;99735.94;5011484;28;20510;-79
2023/08/22 10:39:47;;;;;;;5.03;4.57;;;;;;;34.74;nan;99724.25;5016594;28;20460;-81
2023/08/22 10:42:12;;;;;;;6.67;5.37;;;;;;;34.87;nan;99727.69;5013653;28;20448;-80
2023/08/22 10:44:45;;;;;;;5.57;5.03;;;;;;;35.00;nan;99725.41;5013250;28;20509;-80
2023/08/22 10:47:16;;;;;;;6.07;4.80;;;;;;;35.15;nan;99722.03;5011546;28;20491;-80
2023/08/22 10:49:42;;;;;;;7.40;4.97;;;;;;;35.26;nan;99727.59;5008705;28;21039;-80
2023/08/22 10:52:09;;;;;;;6.20;5.60;;;;;;;35.31;nan;99728.47;5016717;28;20758;-79
2023/08/22 10:54:59;;;;;;;5.70;5.03;;;;;;;35.33;nan;99725.50;5027117;28;20701;-79
2023/08/22 10:57:26;;;;;;;4.40;4.03;;;;;;;35.33;nan;99722.78;5026178;28;20472;-80
2023/08/22 11:00:13;;;;;;;6.87;4.53;;;;;;;35.28;nan;99718.06;5019218;28;20965;-80
2023/08/22 11:02:40;;;;;;;5.37;4.20;;;;;;;35.31;nan;99716.75;5022188;28;20929;-80
2023/08/22 11:05:10;;;;;;;4.83;4.10;;;;;;;35.27;nan;99713.72;5022274;28;20463;-80
2023/08/22 11:07:36;;;;;;;5.53;5.00;;;;;;;35.22;nan;99711.75;5025610;28;20488;-80
2023/08/22 11:10:01;;;;;;;5.30;4.80;;;;;;;35.17;nan;99710.88;5037959;28;20506;-79
2023/08/22 11:12:28;;;;;;;5.60;5.00;;;;;;;35.18;nan;99705.13;5039139;28;20449;-79
2023/08/22 11:14:54;;;;;;;6.40;4.50;;;;;;;35.19;nan;99709.53;5036595;28;20190;-80
2023/08/22 11:17:21;;;;;;;5.67;4.60;;;;;;;35.23;nan;99704.38;5034782;28;20507;-80
2023/08/22 11:19:48;;;;;;;4.87;4.43;;;;;;;35.26;nan;99701.13;5035408;28;20479;-80
2023/08/22 11:22:14;;;;;;;5.20;4.53;;;;;;;35.31;nan;99698.44;5035565;28;21066;-80
2023/08/22 11:24:49;;;;;;;4.87;4.47;;;;;;;35.37;nan;99691.94;5034937;28;20700;-79
2023/08/22 11:27:16;;;;;;;4.90;4.40;;;;;;;35.39;nan;99688.97;5030040;28;20487;-80
2023/08/22 11:29:44;;;;;;;5.40;4.67;;;;;;;35.32;nan;99689.16;5032002;28;20492;-80
2023/08/22 11:32:21;;;;;;;4.63;4.10;;;;;;;35.16;nan;99690.09;5031339;28;20439;-80
2023/08/22 11:34:50;;;;;;;4.80;3.80;;;;;;;35.02;nan;99687.72;5031016;28;20456;-79
2023/08/22 11:37:15;;;;;;;5.83;4.30;;;;;;;34.95;nan;99689.03;5030125;28;21016;-80
2023/08/22 11:39:54;;;;;;;4.70;3.93;;;;;;;34.91;nan;99690.63;5034180;28;20534;-80
2023/08/22 11:42:24;;;;;;;5.67;4.33;;;;;;;34.86;nan;99683.19;5030031;28;20218;-80
2023/08/22 11:45:06;;;;;;;5.07;4.57;;;;;;;34.76;nan;99685.81;5030011;28;20453;-80
2023/08/22 11:47:38;;;;;;;6.60;4.50;;;;;;;34.86;nan;99682.38;5029439;28;20520;-80